sensor_id;sensor_type;location;lat;lon;timestamp;P1;durP1;ratioP1;P2;durP2;ratioP2
17598;SDS011;8918;52.092;5.232;2023-06-10T00:02:26;8.07;;;7.00;;
17598;SDS011;8918;52.092;5.232;2023-06-10T00:04:52;9.00;;;7.05;;
17598;SDS011;8918;52.092;5.232;2023-06-10T00:07:17;7.13;;;6.43;;
17598;SDS011;8918;52.092;5.232;2023-06-10T00:09:43;7.80;;;6.75;;
17598;SDS011;8918;52.092;5.232;2023-06-10T00:12:09;9.68;;;7.35;;
17598;SDS011;8918;52.092;5.232;2023-06-10T00:14:38;7.90;;;6.90;;
17598;SDS011;8918;52.092;5.232;2023-06-10T00:17:05;7.38;;;6.07;;
17598;SDS011;8918;52.092;5.232;2023-06-10T00:19:34;8.70;;;6.78;;
17598;SDS011;8918;52.092;5.232;2023-06-10T00:22:00;8.00;;;6.75;;
17598;SDS011;8918;52.092;5.232;2023-06-10T00:24:25;9.93;;;6.28;;
17598;SDS011;8918;52.092;5.232;2023-06-10T00:26:51;7.82;;;6.70;;
17598;SDS011;8918;52.092;5.232;2023-06-10T00:29:16;8.30;;;6.40;;
17598;SDS011;8918;52.092;5.232;2023-06-10T00:31:44;9.52;;;7.00;;
17598;SDS011;8918;52.092;5.232;2023-06-10T00:34:11;8.55;;;6.40;;
17598;SDS011;8918;52.092;5.232;2023-06-10T00:36:36;7.65;;;6.90;;
17598;SDS011;8918;52.092;5.232;2023-06-10T00:39:02;8.13;;;6.53;;
17598;SDS011;8918;52.092;5.232;2023-06-10T00:41:29;7.35;;;6.30;;
17598;SDS011;8918;52.092;5.232;2023-06-10T00:43:55;9.63;;;6.70;;
17598;SDS011;8918;52.092;5.232;2023-06-10T00:46:21;7.93;;;6.30;;
17598;SDS011;8918;52.092;5.232;2023-06-10T00:48:49;9.38;;;6.65;;
17598;SDS011;8918;52.092;5.232;2023-06-10T00:51:15;8.43;;;6.55;;
17598;SDS011;8918;52.092;5.232;2023-06-10T00:53:44;8.48;;;6.07;;
17598;SDS011;8918;52.092;5.232;2023-06-10T00:56:10;9.82;;;6.35;;
17598;SDS011;8918;52.092;5.232;2023-06-10T00:58:36;8.38;;;6.60;;
17598;SDS011;8918;52.092;5.232;2023-06-10T01:01:02;7.85;;;6.00;;
17598;SDS011;8918;52.092;5.232;2023-06-10T01:03:29;8.70;;;6.40;;
17598;SDS011;8918;52.092;5.232;2023-06-10T01:06:06;9.40;;;6.03;;
17598;SDS011;8918;52.092;5.232;2023-06-10T01:08:51;10.27;;;6.40;;
17598;SDS011;8918;52.092;5.232;2023-06-10T01:11:34;7.68;;;5.80;;
17598;SDS011;8918;52.092;5.232;2023-06-10T01:14:02;7.15;;;6.18;;
17598;SDS011;8918;52.092;5.232;2023-06-10T01:16:30;6.80;;;6.10;;
17598;SDS011;8918;52.092;5.232;2023-06-10T01:18:56;8.05;;;6.28;;
17598;SDS011;8918;52.092;5.232;2023-06-10T01:21:22;8.05;;;5.95;;
17598;SDS011;8918;52.092;5.232;2023-06-10T01:23:52;6.85;;;5.93;;
17598;SDS011;8918;52.092;5.232;2023-06-10T01:26:20;8.52;;;6.22;;
17598;SDS011;8918;52.092;5.232;2023-06-10T01:34:16;7.35;;;5.88;;
17598;SDS011;8918;52.092;5.232;2023-06-10T01:36:47;7.03;;;5.68;;
17598;SDS011;8918;52.092;5.232;2023-06-10T01:39:18;7.82;;;6.20;;
17598;SDS011;8918;52.092;5.232;2023-06-10T01:41:48;9.70;;;6.18;;
17598;SDS011;8918;52.092;5.232;2023-06-10T01:44:17;7.30;;;6.03;;
17598;SDS011;8918;52.092;5.232;2023-06-10T01:46:46;9.18;;;5.80;;
17598;SDS011;8918;52.092;5.232;2023-06-10T01:49:12;8.07;;;5.70;;
17598;SDS011;8918;52.092;5.232;2023-06-10T01:51:38;7.15;;;5.32;;
17598;SDS011;8918;52.092;5.232;2023-06-10T01:54:04;6.95;;;5.60;;
17598;SDS011;8918;52.092;5.232;2023-06-10T01:56:31;8.90;;;5.72;;
17598;SDS011;8918;52.092;5.232;2023-06-10T01:58:56;8.65;;;5.78;;
17598;SDS011;8918;52.092;5.232;2023-06-10T02:01:24;8.73;;;6.38;;
17598;SDS011;8918;52.092;5.232;2023-06-10T02:03:50;6.43;;;5.40;;
17598;SDS011;8918;52.092;5.232;2023-06-10T02:06:16;8.40;;;6.18;;
17598;SDS011;8918;52.092;5.232;2023-06-10T02:08:41;6.13;;;5.38;;
17598;SDS011;8918;52.092;5.232;2023-06-10T02:11:07;9.73;;;6.00;;
17598;SDS011;8918;52.092;5.232;2023-06-10T02:13:32;8.20;;;5.93;;
17598;SDS011;8918;52.092;5.232;2023-06-10T02:15:58;8.57;;;5.95;;
17598;SDS011;8918;52.092;5.232;2023-06-10T02:18:24;10.80;;;6.00;;
17598;SDS011;8918;52.092;5.232;2023-06-10T02:20:52;7.75;;;5.65;;
17598;SDS011;8918;52.092;5.232;2023-06-10T02:23:17;7.45;;;5.75;;
17598;SDS011;8918;52.092;5.232;2023-06-10T02:25:43;7.63;;;5.68;;
17598;SDS011;8918;52.092;5.232;2023-06-10T02:28:08;8.13;;;5.75;;
17598;SDS011;8918;52.092;5.232;2023-06-10T02:30:34;7.97;;;5.93;;
17598;SDS011;8918;52.092;5.232;2023-06-10T02:33:00;8.52;;;6.05;;
17598;SDS011;8918;52.092;5.232;2023-06-10T02:35:26;7.75;;;5.72;;
17598;SDS011;8918;52.092;5.232;2023-06-10T02:37:52;8.27;;;5.97;;
17598;SDS011;8918;52.092;5.232;2023-06-10T02:40:17;9.90;;;6.10;;
17598;SDS011;8918;52.092;5.232;2023-06-10T02:42:43;8.57;;;5.63;;
17598;SDS011;8918;52.092;5.232;2023-06-10T02:45:08;7.40;;;5.40;;
17598;SDS011;8918;52.092;5.232;2023-06-10T02:47:34;7.75;;;5.70;;
17598;SDS011;8918;52.092;5.232;2023-06-10T02:50:00;11.00;;;6.18;;
17598;SDS011;8918;52.092;5.232;2023-06-10T02:52:25;8.68;;;5.53;;
17598;SDS011;8918;52.092;5.232;2023-06-10T02:54:51;9.63;;;5.82;;
17598;SDS011;8918;52.092;5.232;2023-06-10T02:57:16;8.60;;;6.13;;
17598;SDS011;8918;52.092;5.232;2023-06-10T02:59:42;8.07;;;6.13;;
17598;SDS011;8918;52.092;5.232;2023-06-10T03:02:07;8.30;;;5.80;;
17598;SDS011;8918;52.092;5.232;2023-06-10T03:04:33;9.02;;;5.35;;
17598;SDS011;8918;52.092;5.232;2023-06-10T03:06:58;10.43;;;6.30;;
17598;SDS011;8918;52.092;5.232;2023-06-10T03:09:28;9.98;;;6.20;;
17598;SDS011;8918;52.092;5.232;2023-06-10T03:11:54;7.13;;;5.75;;
17598;SDS011;8918;52.092;5.232;2023-06-10T03:14:19;8.73;;;6.10;;
17598;SDS011;8918;52.092;5.232;2023-06-10T03:16:45;8.77;;;6.03;;
17598;SDS011;8918;52.092;5.232;2023-06-10T03:19:10;8.50;;;6.00;;
17598;SDS011;8918;52.092;5.232;2023-06-10T03:21:36;10.00;;;6.57;;
17598;SDS011;8918;52.092;5.232;2023-06-10T03:24:02;8.00;;;6.40;;
17598;SDS011;8918;52.092;5.232;2023-06-10T03:26:28;8.50;;;6.15;;
17598;SDS011;8918;52.092;5.232;2023-06-10T03:28:54;8.32;;;5.80;;
17598;SDS011;8918;52.092;5.232;2023-06-10T03:31:19;8.85;;;6.15;;
17598;SDS011;8918;52.092;5.232;2023-06-10T03:33:45;9.63;;;5.90;;
17598;SDS011;8918;52.092;5.232;2023-06-10T03:36:10;8.55;;;5.80;;
17598;SDS011;8918;52.092;5.232;2023-06-10T03:38:36;8.57;;;5.82;;
17598;SDS011;8918;52.092;5.232;2023-06-10T03:41:02;9.63;;;5.70;;
17598;SDS011;8918;52.092;5.232;2023-06-10T03:43:28;8.55;;;5.53;;
17598;SDS011;8918;52.092;5.232;2023-06-10T03:45:53;10.75;;;6.32;;
17598;SDS011;8918;52.092;5.232;2023-06-10T03:48:19;8.88;;;5.70;;
17598;SDS011;8918;52.092;5.232;2023-06-10T03:50:45;7.32;;;5.50;;
17598;SDS011;8918;52.092;5.232;2023-06-10T03:53:12;7.03;;;5.55;;
17598;SDS011;8918;52.092;5.232;2023-06-10T03:55:38;8.27;;;5.72;;
17598;SDS011;8918;52.092;5.232;2023-06-10T03:58:03;10.00;;;6.00;;
17598;SDS011;8918;52.092;5.232;2023-06-10T04:00:29;8.10;;;5.57;;
17598;SDS011;8918;52.092;5.232;2023-06-10T04:02:54;7.97;;;5.63;;
17598;SDS011;8918;52.092;5.232;2023-06-10T04:05:23;8.75;;;5.68;;
17598;SDS011;8918;52.092;5.232;2023-06-10T04:07:48;9.23;;;6.00;;
17598;SDS011;8918;52.092;5.232;2023-06-10T04:10:14;8.70;;;6.03;;
17598;SDS011;8918;52.092;5.232;2023-06-10T04:12:40;10.68;;;6.50;;
17598;SDS011;8918;52.092;5.232;2023-06-10T04:15:06;9.57;;;6.18;;
17598;SDS011;8918;52.092;5.232;2023-06-10T04:17:33;9.57;;;6.10;;
17598;SDS011;8918;52.092;5.232;2023-06-10T04:19:58;10.35;;;5.95;;
17598;SDS011;8918;52.092;5.232;2023-06-10T04:22:25;9.02;;;6.00;;
17598;SDS011;8918;52.092;5.232;2023-06-10T04:24:51;8.77;;;5.97;;
17598;SDS011;8918;52.092;5.232;2023-06-10T04:27:17;10.73;;;6.35;;
17598;SDS011;8918;52.092;5.232;2023-06-10T04:29:42;7.63;;;5.50;;
17598;SDS011;8918;52.092;5.232;2023-06-10T04:32:08;8.82;;;5.60;;
17598;SDS011;8918;52.092;5.232;2023-06-10T04:34:34;8.95;;;6.32;;
17598;SDS011;8918;52.092;5.232;2023-06-10T04:36:59;9.43;;;6.43;;
17598;SDS011;8918;52.092;5.232;2023-06-10T04:39:25;9.32;;;6.00;;
17598;SDS011;8918;52.092;5.232;2023-06-10T04:41:51;9.55;;;6.07;;
17598;SDS011;8918;52.092;5.232;2023-06-10T04:44:16;9.60;;;6.05;;
17598;SDS011;8918;52.092;5.232;2023-06-10T04:46:42;7.85;;;5.43;;
17598;SDS011;8918;52.092;5.232;2023-06-10T04:49:07;11.75;;;6.25;;
17598;SDS011;8918;52.092;5.232;2023-06-10T04:51:33;8.38;;;6.22;;
17598;SDS011;8918;52.092;5.232;2023-06-10T04:53:59;10.60;;;6.45;;
17598;SDS011;8918;52.092;5.232;2023-06-10T04:56:28;9.35;;;5.95;;
17598;SDS011;8918;52.092;5.232;2023-06-10T04:58:55;8.70;;;6.20;;
17598;SDS011;8918;52.092;5.232;2023-06-10T05:01:21;9.27;;;6.00;;
17598;SDS011;8918;52.092;5.232;2023-06-10T05:03:47;11.15;;;6.38;;
17598;SDS011;8918;52.092;5.232;2023-06-10T05:06:12;8.38;;;6.03;;
17598;SDS011;8918;52.092;5.232;2023-06-10T05:08:38;9.55;;;6.15;;
17598;SDS011;8918;52.092;5.232;2023-06-10T05:11:03;7.40;;;6.05;;
17598;SDS011;8918;52.092;5.232;2023-06-10T05:13:29;8.27;;;6.00;;
17598;SDS011;8918;52.092;5.232;2023-06-10T05:15:55;7.28;;;5.88;;
17598;SDS011;8918;52.092;5.232;2023-06-10T05:18:20;9.23;;;5.88;;
17598;SDS011;8918;52.092;5.232;2023-06-10T05:20:46;10.13;;;6.38;;
17598;SDS011;8918;52.092;5.232;2023-06-10T05:23:11;7.57;;;6.18;;
17598;SDS011;8918;52.092;5.232;2023-06-10T05:25:37;7.88;;;6.03;;
17598;SDS011;8918;52.092;5.232;2023-06-10T05:28:03;9.05;;;5.82;;
17598;SDS011;8918;52.092;5.232;2023-06-10T05:30:28;8.77;;;6.10;;
17598;SDS011;8918;52.092;5.232;2023-06-10T05:32:54;9.35;;;6.38;;
17598;SDS011;8918;52.092;5.232;2023-06-10T05:35:21;8.80;;;6.32;;
17598;SDS011;8918;52.092;5.232;2023-06-10T05:37:47;9.07;;;6.13;;
17598;SDS011;8918;52.092;5.232;2023-06-10T05:40:13;8.10;;;5.80;;
17598;SDS011;8918;52.092;5.232;2023-06-10T05:42:38;8.77;;;6.07;;
17598;SDS011;8918;52.092;5.232;2023-06-10T05:45:05;8.48;;;6.30;;
17598;SDS011;8918;52.092;5.232;2023-06-10T05:47:31;10.20;;;6.65;;
17598;SDS011;8918;52.092;5.232;2023-06-10T05:49:57;8.15;;;6.35;;
17598;SDS011;8918;52.092;5.232;2023-06-10T05:52:22;8.57;;;6.15;;
17598;SDS011;8918;52.092;5.232;2023-06-10T05:54:49;8.50;;;6.00;;
17598;SDS011;8918;52.092;5.232;2023-06-10T05:57:15;8.70;;;6.07;;
17598;SDS011;8918;52.092;5.232;2023-06-10T05:59:40;7.50;;;6.22;;
17598;SDS011;8918;52.092;5.232;2023-06-10T06:02:06;9.18;;;6.45;;
17598;SDS011;8918;52.092;5.232;2023-06-10T06:04:32;11.25;;;6.05;;
17598;SDS011;8918;52.092;5.232;2023-06-10T06:06:57;11.30;;;6.70;;
17598;SDS011;8918;52.092;5.232;2023-06-10T06:09:23;8.45;;;6.25;;
17598;SDS011;8918;52.092;5.232;2023-06-10T06:11:48;7.80;;;6.05;;
17598;SDS011;8918;52.092;5.232;2023-06-10T06:14:14;9.32;;;6.13;;
17598;SDS011;8918;52.092;5.232;2023-06-10T06:16:40;9.52;;;6.32;;
17598;SDS011;8918;52.092;5.232;2023-06-10T06:19:05;9.50;;;6.75;;
17598;SDS011;8918;52.092;5.232;2023-06-10T06:21:31;9.80;;;6.28;;
17598;SDS011;8918;52.092;5.232;2023-06-10T06:23:56;7.55;;;5.90;;
17598;SDS011;8918;52.092;5.232;2023-06-10T06:26:23;7.68;;;6.15;;
17598;SDS011;8918;52.092;5.232;2023-06-10T06:28:48;8.68;;;5.97;;
17598;SDS011;8918;52.092;5.232;2023-06-10T06:31:14;8.65;;;6.47;;
17598;SDS011;8918;52.092;5.232;2023-06-10T06:33:39;8.75;;;6.00;;
17598;SDS011;8918;52.092;5.232;2023-06-10T06:36:05;10.88;;;6.53;;
17598;SDS011;8918;52.092;5.232;2023-06-10T06:38:31;8.70;;;6.13;;
17598;SDS011;8918;52.092;5.232;2023-06-10T06:40:56;10.57;;;6.30;;
17598;SDS011;8918;52.092;5.232;2023-06-10T06:43:27;7.47;;;6.10;;
17598;SDS011;8918;52.092;5.232;2023-06-10T06:45:53;10.45;;;6.20;;
17598;SDS011;8918;52.092;5.232;2023-06-10T06:48:19;8.95;;;6.20;;
17598;SDS011;8918;52.092;5.232;2023-06-10T06:50:44;9.40;;;6.22;;
17598;SDS011;8918;52.092;5.232;2023-06-10T06:53:10;7.13;;;5.70;;
17598;SDS011;8918;52.092;5.232;2023-06-10T06:55:35;8.65;;;6.00;;
17598;SDS011;8918;52.092;5.232;2023-06-10T06:58:01;8.65;;;5.95;;
17598;SDS011;8918;52.092;5.232;2023-06-10T07:00:28;8.85;;;5.68;;
17598;SDS011;8918;52.092;5.232;2023-06-10T07:02:54;10.43;;;5.63;;
17598;SDS011;8918;52.092;5.232;2023-06-10T07:05:21;9.77;;;6.13;;
17598;SDS011;8918;52.092;5.232;2023-06-10T07:07:47;10.30;;;6.13;;
17598;SDS011;8918;52.092;5.232;2023-06-10T07:10:18;8.82;;;5.97;;
17598;SDS011;8918;52.092;5.232;2023-06-10T07:12:45;7.03;;;5.65;;
17598;SDS011;8918;52.092;5.232;2023-06-10T07:15:10;7.47;;;5.70;;
17598;SDS011;8918;52.092;5.232;2023-06-10T07:17:36;8.32;;;5.78;;
17598;SDS011;8918;52.092;5.232;2023-06-10T07:20:02;7.72;;;5.75;;
17598;SDS011;8918;52.092;5.232;2023-06-10T07:22:27;7.13;;;5.97;;
17598;SDS011;8918;52.092;5.232;2023-06-10T07:24:53;9.80;;;5.90;;
17598;SDS011;8918;52.092;5.232;2023-06-10T07:27:20;10.77;;;5.88;;
17598;SDS011;8918;52.092;5.232;2023-06-10T07:29:46;9.55;;;6.13;;
17598;SDS011;8918;52.092;5.232;2023-06-10T07:32:11;10.65;;;6.13;;
17598;SDS011;8918;52.092;5.232;2023-06-10T07:34:37;10.10;;;6.07;;
17598;SDS011;8918;52.092;5.232;2023-06-10T07:37:02;9.32;;;5.97;;
17598;SDS011;8918;52.092;5.232;2023-06-10T07:39:28;9.07;;;5.80;;
17598;SDS011;8918;52.092;5.232;2023-06-10T07:41:53;8.88;;;5.72;;
17598;SDS011;8918;52.092;5.232;2023-06-10T07:44:21;8.45;;;5.43;;
17598;SDS011;8918;52.092;5.232;2023-06-10T07:46:48;7.80;;;5.43;;
17598;SDS011;8918;52.092;5.232;2023-06-10T07:49:13;8.30;;;6.10;;
17598;SDS011;8918;52.092;5.232;2023-06-10T07:51:39;8.98;;;5.53;;
17598;SDS011;8918;52.092;5.232;2023-06-10T07:54:05;8.55;;;6.32;;
17598;SDS011;8918;52.092;5.232;2023-06-10T07:56:30;9.10;;;5.78;;
17598;SDS011;8918;52.092;5.232;2023-06-10T07:58:56;9.80;;;5.80;;
17598;SDS011;8918;52.092;5.232;2023-06-10T08:01:22;6.85;;;5.60;;
17598;SDS011;8918;52.092;5.232;2023-06-10T08:03:49;9.18;;;6.28;;
17598;SDS011;8918;52.092;5.232;2023-06-10T08:06:14;7.75;;;6.10;;
17598;SDS011;8918;52.092;5.232;2023-06-10T08:08:42;9.07;;;5.47;;
17598;SDS011;8918;52.092;5.232;2023-06-10T08:11:09;6.95;;;5.60;;
17598;SDS011;8918;52.092;5.232;2023-06-10T08:13:38;11.10;;;6.10;;
17598;SDS011;8918;52.092;5.232;2023-06-10T08:16:04;7.80;;;5.70;;
17598;SDS011;8918;52.092;5.232;2023-06-10T08:18:30;8.77;;;5.93;;
17598;SDS011;8918;52.092;5.232;2023-06-10T08:20:59;9.55;;;6.05;;
17598;SDS011;8918;52.092;5.232;2023-06-10T08:23:25;9.70;;;5.72;;
17598;SDS011;8918;52.092;5.232;2023-06-10T08:25:50;7.65;;;5.70;;
17598;SDS011;8918;52.092;5.232;2023-06-10T08:28:16;7.55;;;5.95;;
17598;SDS011;8918;52.092;5.232;2023-06-10T08:30:42;8.85;;;5.90;;
17598;SDS011;8918;52.092;5.232;2023-06-10T08:33:07;6.90;;;5.72;;
17598;SDS011;8918;52.092;5.232;2023-06-10T08:35:33;6.82;;;5.68;;
17598;SDS011;8918;52.092;5.232;2023-06-10T08:37:59;13.43;;;5.82;;
17598;SDS011;8918;52.092;5.232;2023-06-10T08:40:24;7.82;;;5.70;;
17598;SDS011;8918;52.092;5.232;2023-06-10T08:42:59;7.18;;;5.53;;
17598;SDS011;8918;52.092;5.232;2023-06-10T08:45:30;8.77;;;5.90;;
17598;SDS011;8918;52.092;5.232;2023-06-10T08:47:57;9.40;;;5.47;;
17598;SDS011;8918;52.092;5.232;2023-06-10T08:50:23;8.27;;;5.93;;
17598;SDS011;8918;52.092;5.232;2023-06-10T08:52:50;8.65;;;5.82;;
17598;SDS011;8918;52.092;5.232;2023-06-10T08:55:21;8.20;;;6.18;;
17598;SDS011;8918;52.092;5.232;2023-06-10T08:57:52;10.88;;;5.70;;
17598;SDS011;8918;52.092;5.232;2023-06-10T09:00:18;9.13;;;5.60;;
17598;SDS011;8918;52.092;5.232;2023-06-10T09:02:44;8.45;;;5.47;;
17598;SDS011;8918;52.092;5.232;2023-06-10T09:05:10;6.90;;;5.68;;
17598;SDS011;8918;52.092;5.232;2023-06-10T09:07:36;7.18;;;5.40;;
17598;SDS011;8918;52.092;5.232;2023-06-10T09:10:03;8.40;;;5.72;;
17598;SDS011;8918;52.092;5.232;2023-06-10T09:12:31;6.90;;;5.53;;
17598;SDS011;8918;52.092;5.232;2023-06-10T09:15:00;8.57;;;5.72;;
17598;SDS011;8918;52.092;5.232;2023-06-10T09:17:26;8.48;;;5.57;;
17598;SDS011;8918;52.092;5.232;2023-06-10T09:19:53;5.72;;;5.13;;
17598;SDS011;8918;52.092;5.232;2023-06-10T09:22:20;6.20;;;5.20;;
17598;SDS011;8918;52.092;5.232;2023-06-10T09:24:49;9.40;;;6.00;;
17598;SDS011;8918;52.092;5.232;2023-06-10T09:27:15;6.43;;;5.63;;
17598;SDS011;8918;52.092;5.232;2023-06-10T09:29:47;10.02;;;5.35;;
17598;SDS011;8918;52.092;5.232;2023-06-10T09:32:13;8.48;;;5.20;;
17598;SDS011;8918;52.092;5.232;2023-06-10T09:34:40;7.38;;;5.38;;
17598;SDS011;8918;52.092;5.232;2023-06-10T09:37:06;7.65;;;5.70;;
17598;SDS011;8918;52.092;5.232;2023-06-10T09:39:33;6.97;;;5.35;;
17598;SDS011;8918;52.092;5.232;2023-06-10T09:41:59;6.30;;;5.57;;
17598;SDS011;8918;52.092;5.232;2023-06-10T09:44:24;7.32;;;5.40;;
17598;SDS011;8918;52.092;5.232;2023-06-10T09:46:50;7.18;;;5.55;;
17598;SDS011;8918;52.092;5.232;2023-06-10T09:49:16;7.65;;;5.13;;
17598;SDS011;8918;52.092;5.232;2023-06-10T09:51:49;6.18;;;5.47;;
17598;SDS011;8918;52.092;5.232;2023-06-10T09:54:19;6.30;;;5.05;;
17598;SDS011;8918;52.092;5.232;2023-06-10T09:56:48;7.35;;;5.38;;
17598;SDS011;8918;52.092;5.232;2023-06-10T09:59:16;7.72;;;5.57;;
17598;SDS011;8918;52.092;5.232;2023-06-10T10:01:56;6.10;;;5.50;;
17598;SDS011;8918;52.092;5.232;2023-06-10T10:04:25;8.45;;;5.38;;
17598;SDS011;8918;52.092;5.232;2023-06-10T10:06:51;8.25;;;5.35;;
17598;SDS011;8918;52.092;5.232;2023-06-10T10:09:17;7.10;;;5.43;;
17598;SDS011;8918;52.092;5.232;2023-06-10T10:11:43;6.03;;;5.00;;
17598;SDS011;8918;52.092;5.232;2023-06-10T10:14:09;6.85;;;5.30;;
17598;SDS011;8918;52.092;5.232;2023-06-10T10:16:36;5.85;;;5.25;;
17598;SDS011;8918;52.092;5.232;2023-06-10T10:19:14;8.02;;;5.28;;
17598;SDS011;8918;52.092;5.232;2023-06-10T10:21:49;6.85;;;5.15;;
17598;SDS011;8918;52.092;5.232;2023-06-10T10:24:18;5.50;;;5.00;;
17598;SDS011;8918;52.092;5.232;2023-06-10T10:26:47;8.80;;;5.45;;
17598;SDS011;8918;52.092;5.232;2023-06-10T10:29:24;6.05;;;5.30;;
17598;SDS011;8918;52.092;5.232;2023-06-10T10:31:52;6.40;;;5.15;;
17598;SDS011;8918;52.092;5.232;2023-06-10T10:34:30;7.35;;;5.13;;
17598;SDS011;8918;52.092;5.232;2023-06-10T10:36:58;5.85;;;5.25;;
17598;SDS011;8918;52.092;5.232;2023-06-10T10:39:24;8.52;;;5.38;;
17598;SDS011;8918;52.092;5.232;2023-06-10T10:41:53;7.40;;;5.38;;
17598;SDS011;8918;52.092;5.232;2023-06-10T10:44:19;8.63;;;5.20;;
17598;SDS011;8918;52.092;5.232;2023-06-10T10:46:49;6.57;;;5.43;;
17598;SDS011;8918;52.092;5.232;2023-06-10T10:49:16;7.93;;;5.50;;
17598;SDS011;8918;52.092;5.232;2023-06-10T10:51:55;5.90;;;5.30;;
17598;SDS011;8918;52.092;5.232;2023-06-10T10:54:32;5.88;;;5.28;;
17598;SDS011;8918;52.092;5.232;2023-06-10T10:57:17;7.78;;;5.35;;
17598;SDS011;8918;52.092;5.232;2023-06-10T11:04:46;8.88;;;4.88;;
17598;SDS011;8918;52.092;5.232;2023-06-10T11:07:13;7.13;;;5.30;;
17598;SDS011;8918;52.092;5.232;2023-06-10T11:09:58;6.68;;;5.70;;
17598;SDS011;8918;52.092;5.232;2023-06-10T11:12:40;8.32;;;5.82;;
17598;SDS011;8918;52.092;5.232;2023-06-10T11:15:12;6.07;;;5.47;;
17598;SDS011;8918;52.092;5.232;2023-06-10T11:17:46;6.32;;;5.32;;
17598;SDS011;8918;52.092;5.232;2023-06-10T11:26:18;7.28;;;5.35;;
17598;SDS011;8918;52.092;5.232;2023-06-10T11:33:53;6.90;;;5.53;;
17598;SDS011;8918;52.092;5.232;2023-06-10T11:36:21;6.30;;;5.70;;
17598;SDS011;8918;52.092;5.232;2023-06-10T11:38:47;7.80;;;5.30;;
17598;SDS011;8918;52.092;5.232;2023-06-10T11:41:14;7.25;;;5.90;;
17598;SDS011;8918;52.092;5.232;2023-06-10T11:43:43;5.97;;;5.35;;
17598;SDS011;8918;52.092;5.232;2023-06-10T11:46:13;7.15;;;5.85;;
17598;SDS011;8918;52.092;5.232;2023-06-10T11:48:49;8.50;;;5.53;;
17598;SDS011;8918;52.092;5.232;2023-06-10T11:51:20;7.15;;;5.78;;
17598;SDS011;8918;52.092;5.232;2023-06-10T11:53:49;8.13;;;5.85;;
17598;SDS011;8918;52.092;5.232;2023-06-10T11:56:21;7.50;;;5.53;;
17598;SDS011;8918;52.092;5.232;2023-06-10T11:58:54;6.40;;;5.80;;
17598;SDS011;8918;52.092;5.232;2023-06-10T12:01:22;8.60;;;6.22;;
17598;SDS011;8918;52.092;5.232;2023-06-10T12:03:58;7.03;;;5.85;;
17598;SDS011;8918;52.092;5.232;2023-06-10T12:06:37;7.45;;;5.82;;
17598;SDS011;8918;52.092;5.232;2023-06-10T12:09:14;6.65;;;5.95;;
17598;SDS011;8918;52.092;5.232;2023-06-10T12:11:44;9.85;;;5.55;;
17598;SDS011;8918;52.092;5.232;2023-06-10T12:14:13;6.47;;;5.53;;
17598;SDS011;8918;52.092;5.232;2023-06-10T12:16:38;6.50;;;5.53;;
17598;SDS011;8918;52.092;5.232;2023-06-10T12:19:04;7.35;;;5.18;;
17598;SDS011;8918;52.092;5.232;2023-06-10T12:21:32;5.85;;;5.22;;
17598;SDS011;8918;52.092;5.232;2023-06-10T12:24:01;7.78;;;5.32;;
17598;SDS011;8918;52.092;5.232;2023-06-10T12:26:34;8.40;;;5.47;;
17598;SDS011;8918;52.092;5.232;2023-06-10T12:29:18;7.70;;;5.47;;
17598;SDS011;8918;52.092;5.232;2023-06-10T12:34:30;6.55;;;5.50;;
17598;SDS011;8918;52.092;5.232;2023-06-10T12:37:04;7.53;;;5.60;;
17598;SDS011;8918;52.092;5.232;2023-06-10T12:39:31;6.32;;;5.68;;
17598;SDS011;8918;52.092;5.232;2023-06-10T12:41:58;6.40;;;5.32;;
17598;SDS011;8918;52.092;5.232;2023-06-10T12:44:33;6.68;;;5.22;;
17598;SDS011;8918;52.092;5.232;2023-06-10T12:47:00;6.85;;;5.85;;
17598;SDS011;8918;52.092;5.232;2023-06-10T12:49:31;7.43;;;5.50;;
17598;SDS011;8918;52.092;5.232;2023-06-10T12:51:57;8.82;;;5.45;;
17598;SDS011;8918;52.092;5.232;2023-06-10T12:54:23;6.28;;;5.55;;
17598;SDS011;8918;52.092;5.232;2023-06-10T12:56:49;7.32;;;5.25;;
17598;SDS011;8918;52.092;5.232;2023-06-10T12:59:15;6.28;;;5.30;;
17598;SDS011;8918;52.092;5.232;2023-06-10T13:01:41;6.00;;;4.97;;
17598;SDS011;8918;52.092;5.232;2023-06-10T13:04:07;8.10;;;5.30;;
17598;SDS011;8918;52.092;5.232;2023-06-10T13:06:32;5.63;;;5.13;;
17598;SDS011;8918;52.092;5.232;2023-06-10T13:09:01;5.82;;;5.22;;
17598;SDS011;8918;52.092;5.232;2023-06-10T13:11:27;5.80;;;5.25;;
17598;SDS011;8918;52.092;5.232;2023-06-10T13:13:53;9.40;;;5.40;;
17598;SDS011;8918;52.092;5.232;2023-06-10T13:16:19;7.10;;;5.50;;
17598;SDS011;8918;52.092;5.232;2023-06-10T13:18:44;5.90;;;5.30;;
17598;SDS011;8918;52.092;5.232;2023-06-10T13:21:11;6.30;;;5.70;;
17598;SDS011;8918;52.092;5.232;2023-06-10T13:23:36;7.18;;;5.45;;
17598;SDS011;8918;52.092;5.232;2023-06-10T13:26:02;8.88;;;5.35;;
17598;SDS011;8918;52.092;5.232;2023-06-10T13:28:28;5.93;;;5.07;;
17598;SDS011;8918;52.092;5.232;2023-06-10T13:30:53;6.20;;;5.60;;
17598;SDS011;8918;52.092;5.232;2023-06-10T13:33:19;7.70;;;5.30;;
17598;SDS011;8918;52.092;5.232;2023-06-10T13:35:44;6.00;;;5.40;;
17598;SDS011;8918;52.092;5.232;2023-06-10T13:38:10;6.82;;;5.32;;
17598;SDS011;8918;52.092;5.232;2023-06-10T13:40:35;6.82;;;5.57;;
17598;SDS011;8918;52.092;5.232;2023-06-10T13:43:01;7.50;;;5.45;;
17598;SDS011;8918;52.092;5.232;2023-06-10T13:45:27;6.90;;;5.65;;
17598;SDS011;8918;52.092;5.232;2023-06-10T13:47:53;7.90;;;5.25;;
17598;SDS011;8918;52.092;5.232;2023-06-10T13:50:18;6.20;;;5.15;;
17598;SDS011;8918;52.092;5.232;2023-06-10T13:52:44;7.50;;;5.78;;
17598;SDS011;8918;52.092;5.232;2023-06-10T13:55:10;9.15;;;6.03;;
17598;SDS011;8918;52.092;5.232;2023-06-10T13:57:35;7.80;;;5.82;;
17598;SDS011;8918;52.092;5.232;2023-06-10T14:00:01;8.40;;;5.80;;
17598;SDS011;8918;52.092;5.232;2023-06-10T14:02:27;7.28;;;5.63;;
17598;SDS011;8918;52.092;5.232;2023-06-10T14:04:52;7.43;;;5.88;;
17598;SDS011;8918;52.092;5.232;2023-06-10T14:07:18;6.97;;;5.60;;
17598;SDS011;8918;52.092;5.232;2023-06-10T14:09:44;6.22;;;5.63;;
17598;SDS011;8918;52.092;5.232;2023-06-10T14:12:10;8.80;;;5.45;;
17598;SDS011;8918;52.092;5.232;2023-06-10T14:14:36;6.40;;;5.80;;
17598;SDS011;8918;52.092;5.232;2023-06-10T14:17:02;6.60;;;5.68;;
17598;SDS011;8918;52.092;5.232;2023-06-10T14:19:29;6.10;;;5.50;;
17598;SDS011;8918;52.092;5.232;2023-06-10T14:21:55;6.20;;;5.38;;
17598;SDS011;8918;52.092;5.232;2023-06-10T14:24:20;8.57;;;5.53;;
17598;SDS011;8918;52.092;5.232;2023-06-10T14:26:46;7.03;;;5.88;;
17598;SDS011;8918;52.092;5.232;2023-06-10T14:29:12;7.55;;;5.78;;
17598;SDS011;8918;52.092;5.232;2023-06-10T14:31:42;6.68;;;5.22;;
17598;SDS011;8918;52.092;5.232;2023-06-10T14:34:07;6.93;;;5.70;;
17598;SDS011;8918;52.092;5.232;2023-06-10T14:36:33;6.10;;;5.40;;
17598;SDS011;8918;52.092;5.232;2023-06-10T14:38:59;7.38;;;6.00;;
17598;SDS011;8918;52.092;5.232;2023-06-10T14:41:24;6.97;;;5.65;;
17598;SDS011;8918;52.092;5.232;2023-06-10T14:43:51;6.20;;;5.57;;
17598;SDS011;8918;52.092;5.232;2023-06-10T14:46:17;6.82;;;5.32;;
17598;SDS011;8918;52.092;5.232;2023-06-10T14:48:42;5.65;;;5.10;;
17598;SDS011;8918;52.092;5.232;2023-06-10T14:51:08;6.85;;;5.70;;
17598;SDS011;8918;52.092;5.232;2023-06-10T14:53:34;6.50;;;5.60;;
17598;SDS011;8918;52.092;5.232;2023-06-10T14:56:00;6.13;;;5.35;;
17598;SDS011;8918;52.092;5.232;2023-06-10T14:58:25;6.78;;;5.43;;
17598;SDS011;8918;52.092;5.232;2023-06-10T15:00:51;6.53;;;5.22;;
17598;SDS011;8918;52.092;5.232;2023-06-10T15:03:16;6.68;;;5.40;;
17598;SDS011;8918;52.092;5.232;2023-06-10T15:05:42;6.03;;;5.40;;
17598;SDS011;8918;52.092;5.232;2023-06-10T15:08:07;6.07;;;5.47;;
17598;SDS011;8918;52.092;5.232;2023-06-10T15:10:33;7.53;;;5.30;;
17598;SDS011;8918;52.092;5.232;2023-06-10T15:12:58;7.43;;;5.30;;
17598;SDS011;8918;52.092;5.232;2023-06-10T15:15:24;7.05;;;5.30;;
17598;SDS011;8918;52.092;5.232;2023-06-10T15:17:53;5.53;;;5.00;;
17598;SDS011;8918;52.092;5.232;2023-06-10T15:20:19;5.78;;;5.20;;
17598;SDS011;8918;52.092;5.232;2023-06-10T15:22:45;6.50;;;5.90;;
17598;SDS011;8918;52.092;5.232;2023-06-10T15:25:10;6.20;;;4.63;;